createdAt,value
2018-08-20T00:00:25.716Z,20.60
2018-08-20T00:01:25.676Z,18.20
2018-08-20T00:02:25.636Z,17.80
2018-08-20T00:03:25.599Z,15.40
2018-08-20T00:04:25.560Z,16.40
2018-08-20T00:05:25.527Z,16.60
2018-08-20T00:06:25.482Z,20.50
2018-08-20T00:07:25.440Z,15.60
2018-08-20T00:08:25.398Z,15.10
2018-08-20T00:09:25.363Z,18.20
2018-08-20T00:10:25.318Z,17.20
2018-08-20T00:11:25.278Z,15.80
2018-08-20T00:12:25.240Z,16.70
2018-08-20T00:13:25.199Z,15.60
2018-08-20T00:14:25.159Z,17.00
2018-08-20T00:15:25.117Z,16.40
2018-08-20T00:16:25.079Z,22.00
2018-08-20T00:17:25.038Z,17.70
2018-08-20T00:18:24.999Z,18.80
2018-08-20T00:19:24.959Z,16.30
2018-08-20T00:20:24.920Z,23.90
2018-08-20T00:21:24.890Z,21.70
2018-08-20T00:22:24.840Z,16.80
2018-08-20T00:23:24.799Z,15.00
2018-08-20T00:24:24.758Z,16.30
2018-08-20T00:25:24.723Z,18.50
2018-08-20T00:26:24.679Z,18.90
2018-08-20T00:27:24.642Z,19.10
2018-08-20T00:28:24.601Z,22.20
2018-08-20T00:29:24.559Z,20.20
2018-08-20T00:30:24.521Z,16.70
2018-08-20T00:31:24.478Z,18.10
2018-08-20T00:32:24.442Z,18.20
2018-08-20T00:33:24.399Z,17.50
2018-08-20T00:34:24.361Z,18.60
2018-08-20T00:35:24.318Z,20.40
2018-08-20T00:36:24.282Z,18.50
2018-08-20T00:37:24.242Z,16.40
2018-08-20T00:38:24.199Z,18.00
2018-08-20T00:39:24.160Z,17.50
2018-08-20T00:40:24.119Z,18.60
2018-08-20T00:41:24.086Z,15.20
2018-08-20T00:42:24.041Z,19.70
2018-08-20T00:43:24.007Z,17.80
2018-08-20T00:44:23.968Z,15.40
2018-08-20T00:45:23.920Z,18.80
2018-08-20T00:46:23.880Z,19.50
2018-08-20T00:47:23.842Z,20.20
2018-08-20T00:48:23.803Z,18.90
2018-08-20T00:49:23.760Z,17.40
2018-08-20T00:50:23.720Z,19.10
2018-08-20T00:51:23.684Z,15.60
2018-08-20T00:52:23.646Z,22.50
2018-08-20T00:53:23.599Z,16.10
2018-08-20T00:54:23.562Z,20.40
2018-08-20T00:55:23.584Z,15.10
2018-08-20T00:56:23.483Z,19.20
2018-08-20T00:57:23.477Z,17.10
2018-08-20T00:58:23.413Z,19.80
2018-08-20T00:59:23.373Z,16.90
2018-08-20T01:00:23.338Z,15.20
2018-08-20T01:01:23.318Z,17.20
2018-08-20T01:02:23.242Z,17.40
2018-08-20T01:03:23.203Z,16.50
2018-08-20T01:04:23.164Z,17.70
2018-08-20T01:05:23.120Z,17.00
2018-08-20T01:06:23.087Z,17.80
2018-08-20T01:07:23.045Z,18.60
2018-08-20T01:08:23.005Z,16.80
2018-08-20T01:09:22.962Z,16.80
2018-08-20T01:10:22.922Z,17.30
2018-08-20T01:11:22.894Z,17.20
2018-08-20T01:12:22.839Z,17.60
2018-08-20T01:13:22.803Z,13.60
2018-08-20T01:14:22.762Z,15.50
2018-08-20T01:15:22.724Z,15.10
2018-08-20T01:16:22.680Z,16.60
2018-08-20T01:17:22.642Z,17.60
2018-08-20T01:18:22.599Z,14.40
2018-08-20T01:19:22.563Z,15.70
2018-08-20T01:20:22.525Z,16.30
2018-08-20T01:21:22.479Z,16.80
2018-08-20T01:22:22.440Z,14.70
2018-08-20T01:23:22.398Z,13.40
2018-08-20T01:24:22.364Z,15.40
2018-08-20T01:25:22.322Z,13.10
2018-08-20T01:26:22.280Z,11.80
2018-08-20T01:27:22.237Z,15.40
2018-08-20T01:28:22.200Z,13.10
2018-08-20T01:29:22.162Z,15.10
2018-08-20T01:30:22.120Z,16.80
2018-08-20T01:31:22.081Z,15.10
2018-08-20T01:32:22.041Z,17.70
2018-08-20T01:33:22.000Z,15.60
2018-08-20T01:34:21.987Z,16.10
2018-08-20T01:35:21.923Z,15.40
2018-08-20T01:36:21.880Z,18.40
2018-08-20T01:37:21.840Z,16.60
2018-08-20T01:38:21.804Z,14.60
2018-08-20T01:39:21.757Z,15.40
2018-08-20T01:40:21.717Z,19.70
2018-08-20T01:41:21.678Z,18.10
2018-08-20T01:42:21.639Z,16.50
2018-08-20T01:43:21.597Z,13.70
2018-08-20T01:44:21.556Z,14.40
2018-08-20T01:45:21.517Z,16.70
2018-08-20T01:46:21.481Z,12.60
2018-08-20T01:47:21.435Z,15.80
2018-08-20T01:48:21.396Z,15.40
2018-08-20T01:49:21.356Z,16.10
2018-08-20T01:50:21.319Z,17.10
2018-08-20T01:51:21.276Z,15.60
2018-08-20T01:52:21.247Z,15.20
2018-08-20T01:53:21.197Z,15.80
2018-08-20T01:54:21.154Z,17.20
2018-08-20T01:55:21.115Z,14.10
2018-08-20T01:56:21.074Z,17.60
2018-08-20T01:57:21.040Z,16.40
2018-08-20T01:58:20.997Z,14.60
2018-08-20T01:59:20.955Z,15.70
2018-08-20T02:00:20.916Z,16.50
2018-08-20T02:01:20.874Z,16.30
2018-08-20T02:02:20.838Z,13.50
2018-08-20T02:03:20.795Z,14.80
2018-08-20T02:04:20.759Z,16.20
2018-08-20T02:05:20.722Z,15.20
2018-08-20T02:06:20.740Z,15.30
2018-08-20T02:07:20.731Z,17.90
2018-08-20T02:08:20.594Z,17.30
2018-08-20T02:09:20.554Z,14.80
2018-08-20T02:10:20.513Z,16.70
2018-08-20T02:11:20.473Z,16.20
2018-08-20T02:12:20.432Z,14.30
2018-08-20T02:13:20.396Z,15.70
2018-08-20T02:14:20.354Z,14.60
2018-08-20T02:15:20.316Z,12.50
2018-08-20T02:16:20.274Z,14.70
2018-08-20T02:17:20.232Z,15.80
2018-08-20T02:18:20.192Z,14.60
2018-08-20T02:19:20.151Z,16.00
2018-08-20T02:20:20.110Z,15.10
2018-08-20T02:21:20.072Z,16.10
2018-08-20T02:22:20.031Z,16.20
2018-08-20T02:23:19.992Z,11.70
2018-08-20T02:24:19.957Z,13.40
2018-08-20T02:25:19.911Z,19.30
2018-08-20T02:26:19.876Z,13.10
2018-08-20T02:27:19.833Z,15.10
2018-08-20T02:28:19.787Z,16.60
2018-08-20T02:29:19.756Z,13.50
2018-08-20T02:30:19.711Z,15.00
2018-08-20T02:31:19.677Z,14.40
2018-08-20T02:32:19.639Z,15.40
2018-08-20T02:33:19.594Z,16.90
2018-08-20T02:34:19.547Z,18.00
2018-08-20T02:35:19.508Z,16.30
2018-08-20T02:36:19.467Z,17.60
2018-08-20T02:37:19.424Z,16.30
2018-08-20T02:38:19.385Z,17.10
2018-08-20T02:39:19.345Z,17.70
2018-08-20T02:40:19.307Z,16.10
2018-08-20T02:41:19.263Z,18.90
2018-08-20T02:42:19.222Z,16.80
2018-08-20T02:43:19.188Z,16.10
2018-08-20T02:44:19.142Z,17.70
2018-08-20T02:45:19.101Z,15.70
2018-08-20T02:46:19.062Z,18.80
2018-08-20T02:47:19.023Z,17.60
2018-08-20T02:48:18.982Z,20.50
2018-08-20T02:49:18.941Z,21.20
2018-08-20T02:50:18.903Z,19.20
2018-08-20T02:51:18.860Z,19.00
2018-08-20T02:52:18.821Z,17.80
2018-08-20T02:53:18.778Z,17.50
2018-08-20T02:54:18.737Z,18.20
2018-08-20T02:55:18.698Z,17.20
2018-08-20T02:56:18.659Z,19.20
2018-08-20T02:57:18.617Z,18.80
2018-08-20T02:58:18.579Z,17.40
2018-08-20T02:59:18.541Z,16.40
2018-08-20T03:00:18.499Z,19.50
2018-08-20T03:01:18.461Z,18.60
2018-08-20T03:02:18.422Z,18.80
2018-08-20T03:03:18.376Z,19.20
2018-08-20T03:04:18.334Z,17.70
2018-08-20T03:05:18.295Z,19.80
2018-08-20T03:06:18.259Z,20.40
2018-08-20T03:07:18.221Z,18.30
2018-08-20T03:08:18.173Z,20.70
2018-08-20T03:09:18.431Z,18.40
2018-08-20T03:10:18.094Z,18.30
2018-08-20T03:11:18.053Z,20.00
2018-08-20T03:12:18.011Z,19.60
2018-08-20T03:13:17.971Z,19.60
2018-08-20T03:14:17.929Z,18.10
2018-08-20T03:15:17.890Z,20.00
2018-08-20T03:16:17.859Z,19.30
2018-08-20T03:17:17.811Z,22.70
2018-08-20T03:18:17.770Z,19.50
2018-08-20T03:19:17.725Z,19.40
2018-08-20T03:20:17.687Z,19.50
2018-08-20T03:21:17.647Z,20.20
2018-08-20T03:22:17.606Z,23.10
2018-08-20T03:23:17.563Z,22.40
2018-08-20T03:24:17.526Z,22.50
2018-08-20T03:25:17.485Z,20.40
2018-08-20T03:26:17.454Z,19.30
2018-08-20T03:27:17.405Z,20.90
2018-08-20T03:28:17.370Z,18.10
2018-08-20T03:29:17.327Z,19.20
2018-08-20T03:30:17.283Z,20.10
2018-08-20T03:31:17.242Z,18.80
2018-08-20T03:32:17.202Z,18.30
2018-08-20T03:33:17.162Z,20.90
2018-08-20T03:34:17.117Z,21.20
2018-08-20T03:35:17.081Z,20.30
2018-08-20T03:36:17.051Z,23.50
2018-08-20T03:37:16.998Z,19.50
2018-08-20T03:38:16.962Z,21.10
2018-08-20T03:39:16.915Z,18.40
2018-08-20T03:40:16.872Z,20.00
2018-08-20T03:41:16.833Z,20.40
2018-08-20T03:42:16.793Z,21.80
2018-08-20T03:43:16.751Z,21.00
2018-08-20T03:44:16.712Z,21.80
2018-08-20T03:45:16.682Z,20.90
2018-08-20T03:46:16.634Z,20.10
2018-08-20T03:47:16.608Z,18.20
2018-08-20T03:48:16.548Z,18.30
2018-08-20T03:49:16.509Z,20.70
2018-08-20T03:50:16.470Z,20.50
2018-08-20T03:51:16.434Z,20.20
2018-08-20T03:52:16.390Z,19.60
2018-08-20T03:53:16.348Z,19.50
2018-08-20T03:54:16.305Z,20.00
2018-08-20T03:55:16.266Z,20.90
2018-08-20T03:56:16.226Z,20.50
2018-08-20T03:57:16.182Z,18.10
2018-08-20T03:58:16.144Z,18.70
2018-08-20T03:59:16.102Z,18.10
2018-08-20T04:00:16.060Z,20.10
2018-08-20T04:01:16.022Z,21.10
2018-08-20T04:02:15.982Z,18.40
2018-08-20T04:03:15.943Z,18.70
2018-08-20T04:04:15.901Z,21.60
2018-08-20T04:05:15.860Z,18.40
2018-08-20T04:06:15.829Z,18.70
2018-08-20T04:07:15.777Z,18.50
2018-08-20T04:08:15.742Z,16.60
2018-08-20T04:09:15.696Z,17.80
2018-08-20T04:10:18.861Z,17.90
2018-08-20T04:11:15.616Z,19.40
2018-08-20T04:12:15.575Z,19.60
2018-08-20T04:13:15.533Z,20.50
2018-08-20T04:14:15.494Z,21.20
2018-08-20T04:15:15.514Z,22.20
2018-08-20T04:16:15.411Z,19.90
2018-08-20T04:17:15.374Z,19.20
2018-08-20T04:18:15.332Z,21.10
2018-08-20T04:19:15.294Z,20.60
2018-08-20T04:20:15.251Z,21.20
2018-08-20T04:21:15.210Z,20.80
2018-08-20T04:22:15.168Z,22.20
2018-08-20T04:23:15.129Z,19.20
2018-08-20T04:24:15.087Z,20.60
2018-08-20T04:25:15.055Z,21.70
2018-08-20T04:26:15.009Z,22.90
2018-08-20T04:27:14.963Z,22.10
2018-08-20T04:28:14.927Z,20.50
2018-08-20T04:29:14.883Z,21.20
2018-08-20T04:30:14.842Z,20.50
2018-08-20T04:31:14.801Z,19.40
2018-08-20T04:32:14.764Z,21.10
2018-08-20T04:33:14.725Z,19.00
2018-08-20T04:34:14.680Z,20.20
2018-08-20T04:35:14.639Z,19.90
2018-08-20T04:36:14.602Z,20.40
2018-08-20T04:37:14.558Z,20.80
2018-08-20T04:38:14.517Z,19.80
2018-08-20T04:39:14.478Z,19.10
2018-08-20T04:40:14.438Z,18.90
2018-08-20T04:41:14.394Z,17.90
2018-08-20T04:42:14.455Z,18.30
2018-08-20T04:43:14.317Z,19.40
2018-08-20T04:44:14.277Z,18.40
2018-08-20T04:45:14.239Z,17.20
2018-08-20T04:46:14.193Z,17.10
2018-08-20T04:47:14.155Z,17.20
2018-08-20T04:48:14.113Z,19.10
2018-08-20T04:49:14.076Z,17.70
2018-08-20T04:50:14.137Z,17.20
2018-08-20T04:51:14.268Z,17.50
2018-08-20T04:52:13.967Z,16.90
2018-08-20T04:53:13.912Z,16.90
2018-08-20T04:54:13.875Z,18.60
2018-08-20T04:55:13.834Z,16.80
2018-08-20T04:56:13.787Z,18.00
2018-08-20T04:57:13.750Z,17.90
2018-08-20T04:58:13.704Z,19.30
2018-08-20T04:59:13.670Z,18.00
2018-08-20T05:00:13.627Z,17.90
2018-08-20T05:01:13.581Z,16.90
2018-08-20T05:02:13.541Z,18.90
2018-08-20T05:03:13.503Z,17.80
2018-08-20T05:04:13.462Z,20.50
2018-08-20T05:05:13.421Z,19.00
2018-08-20T05:06:13.380Z,17.50
2018-08-20T05:07:13.346Z,18.60
2018-08-20T05:08:13.304Z,18.20
2018-08-20T05:09:13.259Z,18.40
2018-08-20T05:10:13.225Z,18.60
2018-08-20T05:11:13.174Z,18.10
2018-08-20T05:12:13.134Z,17.90
2018-08-20T05:13:13.096Z,18.40
2018-08-20T05:14:13.055Z,18.20
2018-08-20T05:15:13.012Z,17.30
2018-08-20T05:16:12.971Z,16.90
2018-08-20T05:17:12.938Z,17.80
2018-08-20T05:18:12.892Z,17.80
2018-08-20T05:19:12.854Z,19.40
2018-08-20T05:20:12.809Z,18.10
2018-08-20T05:21:12.801Z,16.50
2018-08-20T05:22:12.727Z,18.30
2018-08-20T05:23:12.695Z,16.50
2018-08-20T05:24:12.655Z,17.90
2018-08-20T05:25:12.606Z,18.40
2018-08-20T05:26:12.568Z,16.70
2018-08-20T05:27:12.529Z,19.60
2018-08-20T05:28:12.483Z,17.70
2018-08-20T05:29:12.462Z,17.80
2018-08-20T05:30:12.404Z,17.10
2018-08-20T05:31:12.366Z,18.10
2018-08-20T05:32:12.322Z,18.40
2018-08-20T05:33:12.280Z,20.10
2018-08-20T05:34:12.239Z,18.30
2018-08-20T05:35:12.199Z,18.50
2018-08-20T05:36:12.161Z,17.40
2018-08-20T05:37:12.122Z,18.60
2018-08-20T05:38:12.078Z,21.10
2018-08-20T05:39:12.038Z,17.80
2018-08-20T05:40:11.996Z,20.50
2018-08-20T05:41:11.955Z,19.00
2018-08-20T05:42:11.919Z,21.60
2018-08-20T05:43:11.874Z,19.70
2018-08-20T05:44:11.839Z,18.70
2018-08-20T05:45:11.796Z,20.80
2018-08-20T05:46:11.753Z,21.80
2018-08-20T05:47:11.713Z,23.10
2018-08-20T05:48:11.669Z,20.30
2018-08-20T05:49:11.629Z,21.60
2018-08-20T05:50:11.591Z,27.60
2018-08-20T05:51:11.549Z,23.40
2018-08-20T05:52:11.507Z,25.60
2018-08-20T05:53:11.469Z,22.90
2018-08-20T05:54:11.425Z,25.80
2018-08-20T05:55:11.386Z,25.50
2018-08-20T05:56:11.347Z,25.10
2018-08-20T05:57:11.307Z,26.00
2018-08-20T05:58:11.268Z,24.20
2018-08-20T05:59:11.280Z,24.90
2018-08-20T06:00:11.182Z,23.60
2018-08-20T06:01:11.141Z,24.70
2018-08-20T06:02:11.102Z,25.60
2018-08-20T06:03:11.062Z,29.30
2018-08-20T06:04:11.019Z,26.70
2018-08-20T06:05:10.978Z,25.30
2018-08-20T06:06:10.937Z,23.60
2018-08-20T06:07:10.896Z,26.40
2018-08-20T06:08:10.857Z,26.00
2018-08-20T06:09:10.815Z,25.20
2018-08-20T06:10:10.778Z,27.70
2018-08-20T06:11:10.736Z,28.00
2018-08-20T06:12:10.692Z,24.90
2018-08-20T06:13:10.654Z,25.10
2018-08-20T06:14:10.613Z,27.10
2018-08-20T06:15:10.611Z,23.80
2018-08-20T06:16:10.530Z,25.50
2018-08-20T06:17:10.492Z,25.10
2018-08-20T06:18:10.448Z,24.70
2018-08-20T06:19:10.408Z,26.80
2018-08-20T06:20:10.373Z,24.90
2018-08-20T06:21:10.326Z,27.00
2018-08-20T06:22:10.286Z,27.80
2018-08-20T06:23:10.246Z,25.10
2018-08-20T06:24:10.206Z,26.10
2018-08-20T06:25:10.166Z,26.20
2018-08-20T06:26:10.124Z,24.20
2018-08-20T06:27:10.082Z,28.20
2018-08-20T06:28:10.042Z,25.50
2018-08-20T06:29:10.000Z,27.20
2018-08-20T06:30:09.959Z,26.70
2018-08-20T06:31:09.918Z,29.30
2018-08-20T06:32:09.878Z,27.60
2018-08-20T06:33:09.838Z,26.70
2018-08-20T06:34:09.809Z,27.00
2018-08-20T06:35:09.755Z,27.10
2018-08-20T06:36:09.715Z,27.20
2018-08-20T06:37:09.674Z,25.60
2018-08-20T06:38:09.632Z,29.30
2018-08-20T06:39:09.590Z,29.40
2018-08-20T06:40:09.550Z,27.80
2018-08-20T06:41:09.512Z,28.50
2018-08-20T06:42:09.469Z,27.80
2018-08-20T06:43:09.431Z,31.60
2018-08-20T06:44:09.387Z,27.70
2018-08-20T06:45:09.350Z,28.10
2018-08-20T06:46:09.307Z,26.70
2018-08-20T06:47:09.265Z,25.30
2018-08-20T06:48:09.224Z,28.70
2018-08-20T06:49:09.184Z,29.60
2018-08-20T06:50:09.144Z,27.00
2018-08-20T06:51:09.103Z,30.60
2018-08-20T06:52:09.060Z,27.50
2018-08-20T06:53:09.021Z,28.10
2018-08-20T06:54:08.980Z,27.80
2018-08-20T06:55:08.937Z,27.10
2018-08-20T06:56:08.897Z,31.40
2018-08-20T06:57:08.865Z,28.70
2018-08-20T06:58:08.818Z,29.20
2018-08-20T06:59:08.774Z,31.00
2018-08-20T07:00:08.735Z,29.50
2018-08-20T07:01:08.694Z,30.70
2018-08-20T07:02:08.655Z,28.20
2018-08-20T07:03:08.612Z,30.20
2018-08-20T07:04:08.573Z,30.10
2018-08-20T07:05:08.531Z,30.50
2018-08-20T07:06:08.492Z,27.00
2018-08-20T07:07:08.447Z,29.00
2018-08-20T07:08:08.408Z,26.80
2018-08-20T07:09:08.367Z,26.80
2018-08-20T07:10:08.326Z,31.00
2018-08-20T07:11:08.295Z,28.30
2018-08-20T07:12:08.244Z,27.70
2018-08-20T07:13:08.205Z,26.60
2018-08-20T07:14:08.163Z,26.40
2018-08-20T07:15:08.124Z,30.60
2018-08-20T07:17:08.039Z,30.00
2018-08-20T07:18:07.999Z,29.60
2018-08-20T07:20:07.917Z,28.60
2018-08-20T07:21:07.877Z,30.20
2018-08-20T07:22:07.843Z,30.50
2018-08-20T07:23:07.828Z,29.90
2018-08-20T07:24:07.753Z,32.70
2018-08-20T07:25:07.714Z,28.70
2018-08-20T07:26:07.672Z,30.30
2018-08-20T07:27:07.633Z,31.50
2018-08-20T07:28:07.589Z,30.50
2018-08-20T07:29:07.550Z,31.50
2018-08-20T07:30:07.509Z,35.40
2018-08-20T07:31:07.467Z,31.60
2018-08-20T07:32:07.426Z,26.80
2018-08-20T07:33:07.386Z,30.30
2018-08-20T07:34:07.348Z,32.00
2018-08-20T07:35:07.304Z,33.10
2018-08-20T07:37:07.222Z,28.80
2018-08-20T07:38:07.183Z,33.30
2018-08-20T07:39:07.143Z,29.60
2018-08-20T07:40:07.101Z,31.00
2018-08-20T07:41:07.063Z,31.10
2018-08-20T07:42:07.019Z,31.00
2018-08-20T07:43:06.980Z,32.10
2018-08-20T07:44:06.939Z,32.60
2018-08-20T07:45:06.898Z,31.50
2018-08-20T07:46:06.858Z,30.80
2018-08-20T07:47:06.815Z,33.50
2018-08-20T07:48:06.775Z,33.90
2018-08-20T07:49:06.737Z,31.90
2018-08-20T07:50:06.694Z,31.50
2018-08-20T07:51:06.654Z,33.60
2018-08-20T07:52:06.614Z,34.30
2018-08-20T07:53:06.576Z,34.30
2018-08-20T07:54:06.532Z,34.50
2018-08-20T07:55:06.491Z,33.50
2018-08-20T07:56:06.452Z,30.10
2018-08-20T07:57:06.412Z,29.90
2018-08-20T07:58:06.373Z,35.60
2018-08-20T07:59:06.331Z,34.80
2018-08-20T08:00:06.287Z,32.90
2018-08-20T08:01:06.248Z,32.80
2018-08-20T08:02:06.209Z,34.30
2018-08-20T08:03:06.166Z,37.70
2018-08-20T08:04:06.127Z,34.50
2018-08-20T08:05:06.086Z,39.00
2018-08-20T08:06:06.049Z,36.40
2018-08-20T08:07:06.001Z,36.70
2018-08-20T08:08:05.964Z,35.30
2018-08-20T08:09:05.924Z,37.20
2018-08-20T08:10:05.881Z,35.40
2018-08-20T08:11:05.843Z,38.20
2018-08-20T08:12:05.799Z,39.80
2018-08-20T08:13:05.762Z,38.60
2018-08-20T08:14:05.776Z,35.00
2018-08-20T08:15:05.677Z,35.90
2018-08-20T08:16:05.637Z,37.90
2018-08-20T08:17:05.595Z,38.40
2018-08-20T08:18:05.557Z,37.30
2018-08-20T08:19:05.532Z,37.40
2018-08-20T08:20:05.476Z,37.60
2018-08-20T08:21:05.441Z,37.30
2018-08-20T08:22:05.395Z,36.40
2018-08-20T08:23:05.352Z,39.10
2018-08-20T08:24:05.314Z,40.60
2018-08-20T08:25:05.271Z,36.60
2018-08-20T08:26:05.236Z,39.70
2018-08-20T08:27:05.191Z,39.30
2018-08-20T08:28:05.151Z,42.60
2018-08-20T08:29:05.110Z,41.20
2018-08-20T08:30:05.069Z,38.70
2018-08-20T08:31:05.030Z,37.10
2018-08-20T08:32:04.996Z,39.00
2018-08-20T08:33:04.948Z,39.50
2018-08-20T08:34:04.907Z,39.30
2018-08-20T08:35:04.866Z,36.00
2018-08-20T08:36:04.825Z,37.60
2018-08-20T08:37:04.785Z,37.50
2018-08-20T08:38:04.785Z,38.50
2018-08-20T08:39:04.704Z,38.60
2018-08-20T08:40:04.664Z,37.60
2018-08-20T08:41:04.624Z,40.00
2018-08-20T08:42:04.584Z,37.90
2018-08-20T08:43:04.545Z,41.60
2018-08-20T08:44:04.506Z,38.30
2018-08-20T08:45:04.463Z,37.00
2018-08-20T08:46:04.423Z,39.60
2018-08-20T08:47:04.382Z,39.80
2018-08-20T08:48:04.840Z,40.10
2018-08-20T08:49:04.303Z,39.40
2018-08-20T08:50:04.264Z,42.30
2018-08-20T08:51:04.224Z,39.80
2018-08-20T08:52:04.180Z,41.80
2018-08-20T08:53:04.139Z,44.20
2018-08-20T08:54:04.099Z,38.20
2018-08-20T08:55:04.076Z,44.30
2018-08-20T08:56:04.019Z,41.90
2018-08-20T08:57:03.980Z,40.90
2018-08-20T08:58:03.937Z,44.90
2018-08-20T08:59:03.900Z,43.50
2018-08-20T09:00:03.858Z,44.90
2018-08-20T09:01:03.818Z,45.30
2018-08-20T09:02:03.777Z,48.30
2018-08-20T09:03:03.736Z,48.80
2018-08-20T09:04:04.029Z,50.10
2018-08-20T09:05:03.656Z,48.00
2018-08-20T09:06:03.615Z,49.50
2018-08-20T09:07:03.575Z,46.70
2018-08-20T09:08:03.537Z,48.70
2018-08-20T09:09:03.496Z,43.50
2018-08-20T09:10:03.455Z,47.70
2018-08-20T09:11:03.418Z,48.10
2018-08-20T09:12:03.375Z,44.00
2018-08-20T09:13:03.338Z,45.70
2018-08-20T09:14:03.296Z,46.60
2018-08-20T09:15:03.252Z,46.60
2018-08-20T09:16:03.215Z,49.30
2018-08-20T09:17:03.177Z,48.50
2018-08-20T09:18:03.136Z,46.90
2018-08-20T09:19:03.094Z,52.60
2018-08-20T09:20:03.054Z,50.80
2018-08-20T09:21:03.017Z,50.00
2018-08-20T09:22:02.978Z,53.80
2018-08-20T09:23:02.931Z,52.70
2018-08-20T09:24:02.892Z,51.40
2018-08-20T09:25:02.855Z,49.70
2018-08-20T09:26:02.815Z,51.10
2018-08-20T09:27:02.771Z,52.50
2018-08-20T09:28:02.732Z,49.90
2018-08-20T09:29:02.692Z,48.40
2018-08-20T09:30:02.653Z,47.80
2018-08-20T09:31:02.611Z,48.80
2018-08-20T09:32:02.572Z,47.60
2018-08-20T09:33:02.538Z,48.60
2018-08-20T09:34:02.491Z,49.30
2018-08-20T09:35:02.451Z,41.90
2018-08-20T09:36:02.412Z,46.00
2018-08-20T09:37:02.372Z,43.40
2018-08-20T09:38:02.347Z,45.10
2018-08-20T09:39:02.550Z,44.00
2018-08-20T09:40:02.253Z,45.30
2018-08-20T09:41:02.213Z,42.40
2018-08-20T09:42:02.179Z,43.60
2018-08-20T09:43:02.131Z,39.30
2018-08-20T09:44:02.092Z,42.90
2018-08-20T09:45:02.050Z,42.40
2018-08-20T09:46:02.017Z,39.80
2018-08-20T09:47:01.972Z,40.40
2018-08-20T09:48:01.933Z,41.80
2018-08-20T09:49:01.894Z,39.00
2018-08-20T09:50:01.853Z,37.70
2018-08-20T09:51:01.812Z,40.20
2018-08-20T09:52:01.772Z,39.80
2018-08-20T09:53:01.741Z,39.10
2018-08-20T09:54:01.696Z,35.50
2018-08-20T09:55:01.656Z,35.80
2018-08-20T09:56:01.617Z,40.40
2018-08-20T09:57:01.587Z,36.70
2018-08-20T09:58:01.538Z,39.10
2018-08-20T09:59:01.511Z,37.10
2018-08-20T10:00:01.468Z,38.40
2018-08-20T10:01:01.416Z,41.20
2018-08-20T10:02:01.377Z,38.80
2018-08-20T10:03:01.335Z,37.70
2018-08-20T10:04:01.296Z,34.00
2018-08-20T10:05:01.257Z,38.70
2018-08-20T10:06:01.217Z,39.00
2018-08-20T10:07:01.183Z,39.80
2018-08-20T10:08:01.137Z,38.10
2018-08-20T10:09:01.098Z,33.90
2018-08-20T10:10:01.063Z,35.60
2018-08-20T10:11:01.019Z,39.10
2018-08-20T10:12:00.979Z,36.10
2018-08-20T10:13:00.941Z,37.40
2018-08-20T10:14:00.907Z,37.50
2018-08-20T10:15:00.864Z,34.00
2018-08-20T10:16:00.826Z,36.80
2018-08-20T10:17:00.784Z,36.30
2018-08-20T10:18:00.746Z,33.70
2018-08-20T10:19:00.706Z,33.40
2018-08-20T10:20:00.666Z,34.10
2018-08-20T10:21:00.629Z,34.40
2018-08-20T10:22:00.591Z,34.90
2018-08-20T10:23:00.553Z,32.10
2018-08-20T10:24:00.515Z,35.20
2018-08-20T10:25:00.473Z,34.40
2018-08-20T10:26:00.434Z,35.20
2018-08-20T10:27:00.400Z,35.80
2018-08-20T10:28:00.356Z,36.20
2018-08-20T10:29:00.320Z,33.50
2018-08-20T10:30:00.280Z,33.70
2018-08-20T10:31:00.241Z,37.00
2018-08-20T10:32:00.257Z,33.30
2018-08-20T10:33:00.164Z,35.40
2018-08-20T10:34:00.126Z,37.40
2018-08-20T10:35:00.084Z,35.80
2018-08-20T10:36:00.047Z,36.30
2018-08-20T10:37:00.011Z,31.50
2018-08-20T10:38:00.009Z,34.70
2018-08-20T10:38:59.946Z,31.20
2018-08-20T10:39:59.905Z,33.00
2018-08-20T10:40:59.855Z,32.30
2018-08-20T10:41:59.819Z,33.50
2018-08-20T10:42:59.777Z,32.00
2018-08-20T10:43:59.744Z,30.70
2018-08-20T10:44:59.702Z,28.90
2018-08-20T10:45:59.665Z,28.30
2018-08-20T10:46:59.625Z,27.80
2018-08-20T10:47:59.587Z,28.50
2018-08-20T10:48:59.547Z,26.00
2018-08-20T10:49:59.569Z,26.70
2018-08-20T10:50:59.471Z,27.40
2018-08-20T10:51:59.434Z,26.80
2018-08-20T10:52:59.395Z,26.10
2018-08-20T10:53:59.357Z,28.10
2018-08-20T10:54:59.319Z,26.40
2018-08-20T10:55:59.280Z,29.00
2018-08-20T10:56:59.240Z,24.90
2018-08-20T10:57:59.202Z,26.70
2018-08-20T10:58:59.163Z,27.20
2018-08-20T10:59:59.125Z,25.50
2018-08-20T11:00:59.088Z,24.50
2018-08-20T11:01:59.091Z,25.60
2018-08-20T11:02:59.012Z,24.50
2018-08-20T11:03:58.979Z,24.40
2018-08-20T11:04:58.938Z,25.80
2018-08-20T11:05:58.899Z,25.90
2018-08-20T11:06:58.859Z,26.20
2018-08-20T11:07:58.824Z,27.10
2018-08-20T11:08:58.786Z,22.80
2018-08-20T11:09:58.856Z,24.10
2018-08-20T11:10:58.738Z,24.30
2018-08-20T11:11:58.670Z,23.70
2018-08-20T11:12:58.635Z,26.60
2018-08-20T11:13:58.597Z,23.90
2018-08-20T11:14:58.564Z,23.70
2018-08-20T11:15:58.518Z,25.00
2018-08-20T11:16:58.480Z,23.80
2018-08-20T11:17:58.562Z,24.50
2018-08-20T11:18:58.406Z,23.00
2018-08-20T11:19:58.367Z,24.80
2018-08-20T11:20:58.374Z,25.30
2018-08-20T11:21:58.592Z,25.10
2018-08-20T11:22:58.252Z,24.80
2018-08-20T11:23:58.220Z,22.40
2018-08-20T11:24:58.344Z,22.70
2018-08-20T11:25:58.141Z,25.40
2018-08-20T11:26:58.144Z,23.00
2018-08-20T11:27:58.466Z,22.50
2018-08-20T11:28:58.027Z,22.30
2018-08-20T11:29:57.988Z,22.70
2018-08-20T11:30:57.954Z,25.90
2018-08-20T11:31:57.913Z,25.50
2018-08-20T11:32:57.874Z,24.80
2018-08-20T11:33:57.839Z,24.00
2018-08-20T11:34:57.799Z,22.60
2018-08-20T11:35:57.763Z,23.10
2018-08-20T11:36:57.723Z,24.50
2018-08-20T11:37:57.687Z,25.20
2018-08-20T11:38:57.826Z,27.00
2018-08-20T11:39:57.641Z,24.10
2018-08-20T11:40:57.572Z,25.50
2018-08-20T11:41:57.553Z,23.60
2018-08-20T11:42:57.727Z,27.40
2018-08-20T11:43:57.738Z,24.40
2018-08-20T11:44:57.418Z,24.50
2018-08-20T11:45:57.381Z,27.50
2018-08-20T11:46:57.740Z,27.40
2018-08-20T11:47:57.303Z,26.60
2018-08-20T11:48:57.272Z,29.40
2018-08-20T11:49:57.228Z,31.30
2018-08-20T11:50:57.187Z,27.10
2018-08-20T11:51:57.151Z,30.60
2018-08-20T11:52:57.119Z,29.40
2018-08-20T11:53:57.753Z,31.10
2018-08-20T11:54:57.032Z,30.80
2018-08-20T11:55:56.997Z,31.60
2018-08-20T11:56:56.959Z,33.10
2018-08-20T11:57:56.917Z,28.90
2018-08-20T11:58:56.893Z,33.80
2018-08-20T11:59:56.839Z,32.80
2018-08-20T12:00:56.803Z,32.50
2018-08-20T12:01:56.790Z,34.50
2018-08-20T12:02:56.722Z,32.00
2018-08-20T12:03:56.684Z,33.90
2018-08-20T12:04:56.649Z,33.20
2018-08-20T12:05:56.606Z,31.90
2018-08-20T12:06:56.665Z,31.70
2018-08-20T12:07:56.533Z,32.40
2018-08-20T12:08:56.497Z,32.10
2018-08-20T12:09:56.457Z,32.90
2018-08-20T12:10:56.410Z,30.40
2018-08-20T12:11:56.372Z,32.20
2018-08-20T12:12:56.341Z,32.70
2018-08-20T12:13:56.298Z,33.00
2018-08-20T12:14:56.309Z,30.60
2018-08-20T12:15:56.218Z,29.70
2018-08-20T12:16:56.178Z,31.40
2018-08-20T12:17:56.138Z,32.00
2018-08-20T12:18:56.100Z,34.60
2018-08-20T12:19:56.066Z,32.40
2018-08-20T12:20:56.028Z,32.80
2018-08-20T12:21:55.982Z,30.40
2018-08-20T12:22:55.946Z,31.10
2018-08-20T12:23:55.905Z,33.60
2018-08-20T12:24:55.869Z,33.40
2018-08-20T12:25:55.829Z,30.20
2018-08-20T12:26:55.786Z,33.20
2018-08-20T12:27:55.747Z,32.50
2018-08-20T12:28:55.711Z,32.60
2018-08-20T12:29:55.671Z,30.50
2018-08-20T12:30:55.675Z,33.00
2018-08-20T12:31:55.593Z,32.60
2018-08-20T12:32:55.641Z,31.50
2018-08-20T12:33:55.515Z,30.20
2018-08-20T12:34:55.473Z,30.40
2018-08-20T12:35:55.442Z,31.80
2018-08-20T12:36:55.397Z,29.90
2018-08-20T12:37:55.358Z,31.60
2018-08-20T12:38:55.323Z,29.10
2018-08-20T12:39:55.435Z,26.30
2018-08-20T12:40:55.242Z,31.20
2018-08-20T12:41:55.202Z,32.40
2018-08-20T12:42:55.168Z,31.90
2018-08-20T12:43:55.202Z,28.60
2018-08-20T12:44:55.084Z,34.50
2018-08-20T12:45:55.054Z,34.10
2018-08-20T12:46:55.007Z,27.30
2018-08-20T12:47:54.973Z,28.80
2018-08-20T12:48:54.929Z,29.50
2018-08-20T12:49:54.886Z,32.90
2018-08-20T12:50:54.860Z,31.20
2018-08-20T12:51:54.812Z,33.90
2018-08-20T12:52:54.787Z,29.80
2018-08-20T12:53:54.739Z,30.80
2018-08-20T12:54:54.694Z,33.90